Joy — V2EI9 — position and weather

sailwx.info

Track history (hours):
 
Tides and Currents Weather Stations Pressure Air Temp Water Temp Dewpoint Dewpoint Depression Visibility Wind Speed Wind Dir Waves Ship Positions

Joy

Last reported at 2014-Jul-29 22:28 UTC. Time now 2014-Jul-29 22:58 UTC.
Position N 53°24' E 014°36'.

Length 105 m; draft 6 m.

Type: Cargo ship. MMSI: 305444000.

Date/timePositionNaut miles runAvg speedWind from/ knotsBaromVisibWave heightAir tempDewpointWater temp
2014-Jul-29 22:28N 53°24' E 014°36'0 0.0
2014-Jul-29 21:16N 53°24' E 014°36'0 0.0
2014-Jul-29 20:28N 53°24' E 014°36'0 0.0
2014-Jul-29 19:31N 53°24' E 014°36'0 0.0
2014-Jul-29 18:28N 53°24' E 014°36'0 0.0
2014-Jul-29 17:22N 53°24' E 014°36'0 0.0
2014-Jul-29 16:31N 53°24' E 014°36'0 0.0
2014-Jul-29 15:28N 53°24' E 014°36'0 0.0
2014-Jul-29 14:33N 53°24' E 014°36'0 0.0
2014-Jul-29 13:21N 53°24' E 014°36'0 0.0
2014-Jul-29 10:33N 53°24' E 014°36'0 0.0
2014-Jul-29 07:33N 53°24' E 014°36'0 0.0
2014-Jul-29 06:27N 53°24' E 014°36'0 0.0
2014-Jul-29 05:33N 53°24' E 014°36'0 0.0
2014-Jul-29 04:33N 53°24' E 014°36'0 0.0
2014-Jul-29 03:33N 53°24' E 014°36'0 0.0
2014-Jul-29 02:33N 53°24' E 014°36'0 0.0
2014-Jul-29 01:33N 53°24' E 014°36'0 0.0
2014-Jul-29 00:33N 53°24' E 014°36'3 3.4
2014-Jul-28 23:33N 53°28' E 014°36'9 8.5
2014-Jul-28 22:33N 53°36' E 014°35'1010.0
2014-Jul-28 21:33N 53°44' E 014°26'9 9.3
2014-Jul-28 20:33N 53°52' E 014°17'7 7.5
2014-Jul-28 19:33N 53°59' E 014°15'1110.9
2014-Jul-28 18:33N 54°10' E 014°12'10 9.9
2014-Jul-28 17:33N 54°19' E 014°05'1010.4
2014-Jul-28 16:33N 54°29' E 014°02'1111.0
2014-Jul-28 15:33N 54°37' E 013°49'1111.1
2014-Jul-28 14:33N 54°46' E 013°37'1111.0
2014-Jul-28 13:33N 54°55' E 013°24'1110.9
2014-Jul-28 12:33N 55°02' E 013°11'1111.0
2014-Jul-28 11:33N 55°11' E 012°58'1110.9
2014-Jul-28 10:33N 55°17' E 012°43'9 9.5
2014-Jul-28 09:33N 55°26' E 012°40'1110.9
2014-Jul-28 08:33N 55°37' E 012°42'1111.0
2014-Jul-28 07:33N 55°48' E 012°41'1110.6
2014-Jul-28 06:33N 55°58' E 012°37'9 9.2
2014-Jul-28 05:33N 56°07' E 012°31'1111.1
2014-Jul-28 04:33N 56°13' E 012°15'1110.6
2014-Jul-28 03:32N 56°21' E 012°02'1111.1
2014-Jul-28 02:33N 56°32' E 011°57'1110.8
2014-Jul-28 01:33N 56°42' E 011°53'1110.9
2014-Jul-28 00:33N 56°53' E 011°47'1210.7
2014-Jul-27 23:24N 57°04' E 011°39'910.7
2014-Jul-27 22:33N 57°13' E 011°34'1110.9
2014-Jul-27 21:33N 57°23' E 011°27'1110.5
2014-Jul-27 20:33N 57°32' E 011°16'1111.2
2014-Jul-27 19:33N 57°39' E 011°01'1110.8
2014-Jul-27 18:33N 57°47' E 010°46'1110.9
2014-Jul-27 17:33N 57°48' E 010°26'1111.4
2014-Jul-27 16:33N 57°47' E 010°04'20610.7
2014-Jul-26 21:22N 58°14' E 003°39'1111.4
2014-Jul-26 20:22N 58°17' E 003°18'1011.2
2014-Jul-26 19:26N 58°21' E 002°60'1311.0
2014-Jul-26 18:13N 58°25' E 002°35'4410.9
2014-Jul-26 14:12N 58°38' E 001°15'710.8
2014-Jul-26 13:33N 58°39' E 001°02'1210.9
2014-Jul-26 12:30N 58°39' E 000°40'1210.9
2014-Jul-26 11:25N 58°40' E 000°17'910.9
2014-Jul-26 10:33N 58°40' W 000°01'1111.0
2014-Jul-26 09:33N 58°40' W 000°22'7011.1
2014-Jul-26 03:13N 58°43' W 002°37'710.1
2014-Jul-26 02:33N 58°43' W 002°50'6 5.5
2014-Jul-26 01:33N 58°43' W 003°00'5 5.4
2014-Jul-26 00:33N 58°43' W 003°11'9 9.2
2014-Jul-25 23:33N 58°43' W 003°28'1110.9
2014-Jul-25 22:33N 58°42' W 003°49'1111.1
2014-Jul-25 21:33N 58°42' W 004°11'1111.5
2014-Jul-25 20:33N 58°43' W 004°33'8 7.5
2014-Jul-25 19:33N 58°42' W 004°47'1111.0
2014-Jul-25 18:33N 58°38' W 005°07'1211.9
2014-Jul-25 17:33N 58°28' W 005°18'1110.9
2014-Jul-25 16:33N 58°19' W 005°30'1310.9
2014-Jul-25 15:22N 58°08' W 005°44'137 9.8
2014-Jul-25 01:19N 55°58' W 007°01'912.2
2014-Jul-25 00:33N 55°50' W 006°50'1312.7
2014-Jul-24 23:33N 55°40' W 006°37'1312.5
2014-Jul-24 22:33N 55°30' W 006°23'1110.6
2014-Jul-24 21:33N 55°25' W 006°07'9 9.1
2014-Jul-24 20:33N 55°18' W 005°56'8 8.4
2014-Jul-24 19:33N 55°12' W 005°48'10 9.2
2014-Jul-24 18:27N 55°03' W 005°40'9 9.6
2014-Jul-24 17:33N 54°54' W 005°35'1010.3
2014-Jul-24 16:33N 54°44' W 005°37'9 9.1
2014-Jul-24 15:33N 54°40' W 005°51'3 1.7
2014-Jul-24 13:33N 54°37' W 005°55'0 0.0
2014-Jul-24 08:30N 54°37' W 005°55'0 0.0
2014-Jul-24 05:12N 54°37' W 005°55'0 0.0
2014-Jul-24 04:24N 54°37' W 005°55'0 0.0
2014-Jul-24 03:09N 54°37' W 005°55'0 0.0
2014-Jul-24 02:18N 54°37' W 005°55'0 0.0
2014-Jul-23 21:03N 54°37' W 005°55'0 0.0
2014-Jul-23 20:30N 54°37' W 005°55'0 0.0
2014-Jul-23 08:18N 54°37' W 005°55'0 0.0
2014-Jul-22 23:08N 54°37' W 005°55'0 0.0
2014-Jul-22 22:23N 54°37' W 005°55'0 0.0
2014-Jul-22 20:29N 54°37' W 005°55'0 0.0
2014-Jul-22 12:26N 54°37' W 005°54'0 0.0
2014-Jul-22 09:29N 54°37' W 005°54'0 0.0
2014-Jul-22 07:11N 54°37' W 005°54'0 0.0
2014-Jul-21 23:23N 54°37' W 005°54'0 0.0
2014-Jul-21 22:14N 54°37' W 005°54'0 0.0
2014-Jul-21 15:29N 54°37' W 005°54'0 0.0
2014-Jul-21 14:29N 54°37' W 005°54'0 0.0
2014-Jul-21 13:32N 54°37' W 005°54'0 0.0
2014-Jul-21 12:26N 54°37' W 005°54'0 0.0
2014-Jul-21 11:32N 54°37' W 005°54'0 0.0
2014-Jul-21 10:29N 54°37' W 005°54'0 0.0
2014-Jul-21 09:29N 54°37' W 005°54'0 0.0
2014-Jul-21 08:26N 54°37' W 005°54'0 0.0
2014-Jul-21 07:29N 54°37' W 005°54'0 0.0
2014-Jul-21 05:32N 54°37' W 005°54'0 0.0
2014-Jul-20 18:31N 54°37' W 005°54'8 8.4
2014-Jul-20 17:33N 54°42' W 005°43'1110.9
2014-Jul-20 16:33N 54°52' W 005°36'1512.3
2014-Jul-20 15:21N 55°05' W 005°49'1113.3
2014-Jul-20 14:33N 55°14' W 005°59'1212.1
2014-Jul-20 13:33N 55°22' W 006°16'1211.8
2014-Jul-20 12:33N 55°31' W 006°28'1110.9
2014-Jul-20 11:33N 55°40' W 006°40'1010.2
2014-Jul-20 10:33N 55°48' W 006°50'  
Track history (hours):
 
Tides and Currents Weather Stations Pressure Air Temp Water Temp Dewpoint Dewpoint Depression Visibility Wind Speed Wind Dir Waves Ship Positions

Joy

Last reported at 2014-Jul-29 22:28 UTC. Time now 2014-Jul-29 22:58 UTC.
Position N 53°24' E 014°36'.

Length 105 m; draft 6 m.

Type: Cargo ship. MMSI: 305444000.

Date/timePositionNaut miles runAvg speedWind from/ knotsBaromVisibWave heightAir tempDewpointWater temp
2014-Jul-29 22:28N 53°24' E 014°36'0 0.0
2014-Jul-29 21:16N 53°24' E 014°36'0 0.0
2014-Jul-29 20:28N 53°24' E 014°36'0 0.0
2014-Jul-29 19:31N 53°24' E 014°36'0 0.0
2014-Jul-29 18:28N 53°24' E 014°36'0 0.0
2014-Jul-29 17:22N 53°24' E 014°36'0 0.0
2014-Jul-29 16:31N 53°24' E 014°36'0 0.0
2014-Jul-29 15:28N 53°24' E 014°36'0 0.0
2014-Jul-29 14:33N 53°24' E 014°36'0 0.0
2014-Jul-29 13:21N 53°24' E 014°36'0 0.0
2014-Jul-29 10:33N 53°24' E 014°36'0 0.0
2014-Jul-29 07:33N 53°24' E 014°36'0 0.0
2014-Jul-29 06:27N 53°24' E 014°36'0 0.0
2014-Jul-29 05:33N 53°24' E 014°36'0 0.0
2014-Jul-29 04:33N 53°24' E 014°36'0 0.0
2014-Jul-29 03:33N 53°24' E 014°36'0 0.0
2014-Jul-29 02:33N 53°24' E 014°36'0 0.0
2014-Jul-29 01:33N 53°24' E 014°36'0 0.0
2014-Jul-29 00:33N 53°24' E 014°36'3 3.4
2014-Jul-28 23:33N 53°28' E 014°36'9 8.5
2014-Jul-28 22:33N 53°36' E 014°35'1010.0
2014-Jul-28 21:33N 53°44' E 014°26'9 9.3
2014-Jul-28 20:33N 53°52' E 014°17'7 7.5
2014-Jul-28 19:33N 53°59' E 014°15'1110.9
2014-Jul-28 18:33N 54°10' E 014°12'10 9.9
2014-Jul-28 17:33N 54°19' E 014°05'1010.4
2014-Jul-28 16:33N 54°29' E 014°02'1111.0
2014-Jul-28 15:33N 54°37' E 013°49'1111.1
2014-Jul-28 14:33N 54°46' E 013°37'1111.0
2014-Jul-28 13:33N 54°55' E 013°24'1110.9
2014-Jul-28 12:33N 55°02' E 013°11'1111.0
2014-Jul-28 11:33N 55°11' E 012°58'1110.9
2014-Jul-28 10:33N 55°17' E 012°43'9 9.5
2014-Jul-28 09:33N 55°26' E 012°40'1110.9
2014-Jul-28 08:33N 55°37' E 012°42'1111.0
2014-Jul-28 07:33N 55°48' E 012°41'1110.6
2014-Jul-28 06:33N 55°58' E 012°37'9 9.2
2014-Jul-28 05:33N 56°07' E 012°31'1111.1
2014-Jul-28 04:33N 56°13' E 012°15'1110.6
2014-Jul-28 03:32N 56°21' E 012°02'1111.1
2014-Jul-28 02:33N 56°32' E 011°57'1110.8
2014-Jul-28 01:33N 56°42' E 011°53'1110.9
2014-Jul-28 00:33N 56°53' E 011°47'1210.7
2014-Jul-27 23:24N 57°04' E 011°39'910.7
2014-Jul-27 22:33N 57°13' E 011°34'1110.9
2014-Jul-27 21:33N 57°23' E 011°27'1110.5
2014-Jul-27 20:33N 57°32' E 011°16'1111.2
2014-Jul-27 19:33N 57°39' E 011°01'1110.8
2014-Jul-27 18:33N 57°47' E 010°46'1110.9
2014-Jul-27 17:33N 57°48' E 010°26'1111.4
2014-Jul-27 16:33N 57°47' E 010°04'20610.7
2014-Jul-26 21:22N 58°14' E 003°39'1111.4
2014-Jul-26 20:22N 58°17' E 003°18'1011.2
2014-Jul-26 19:26N 58°21' E 002°60'1311.0
2014-Jul-26 18:13N 58°25' E 002°35'4410.9
2014-Jul-26 14:12N 58°38' E 001°15'710.8
2014-Jul-26 13:33N 58°39' E 001°02'1210.9
2014-Jul-26 12:30N 58°39' E 000°40'1210.9
2014-Jul-26 11:25N 58°40' E 000°17'910.9
2014-Jul-26 10:33N 58°40' W 000°01'1111.0
2014-Jul-26 09:33N 58°40' W 000°22'7011.1
2014-Jul-26 03:13N 58°43' W 002°37'710.1
2014-Jul-26 02:33N 58°43' W 002°50'6 5.5
2014-Jul-26 01:33N 58°43' W 003°00'5 5.4
2014-Jul-26 00:33N 58°43' W 003°11'9 9.2
2014-Jul-25 23:33N 58°43' W 003°28'1110.9
2014-Jul-25 22:33N 58°42' W 003°49'1111.1
2014-Jul-25 21:33N 58°42' W 004°11'1111.5
2014-Jul-25 20:33N 58°43' W 004°33'8 7.5
2014-Jul-25 19:33N 58°42' W 004°47'1111.0
2014-Jul-25 18:33N 58°38' W 005°07'1211.9
2014-Jul-25 17:33N 58°28' W 005°18'1110.9
2014-Jul-25 16:33N 58°19' W 005°30'1310.9
2014-Jul-25 15:22N 58°08' W 005°44'137 9.8
2014-Jul-25 01:19N 55°58' W 007°01'912.2
2014-Jul-25 00:33N 55°50' W 006°50'1312.7
2014-Jul-24 23:33N 55°40' W 006°37'1312.5
2014-Jul-24 22:33N 55°30' W 006°23'1110.6
2014-Jul-24 21:33N 55°25' W 006°07'9 9.1
2014-Jul-24 20:33N 55°18' W 005°56'8 8.4
2014-Jul-24 19:33N 55°12' W 005°48'10 9.2
2014-Jul-24 18:27N 55°03' W 005°40'9 9.6
2014-Jul-24 17:33N 54°54' W 005°35'1010.3
2014-Jul-24 16:33N 54°44' W 005°37'9 9.1
2014-Jul-24 15:33N 54°40' W 005°51'3 1.7
2014-Jul-24 13:33N 54°37' W 005°55'0 0.0
2014-Jul-24 08:30N 54°37' W 005°55'0 0.0
2014-Jul-24 05:12N 54°37' W 005°55'0 0.0
2014-Jul-24 04:24N 54°37' W 005°55'0 0.0
2014-Jul-24 03:09N 54°37' W 005°55'0 0.0
2014-Jul-24 02:18N 54°37' W 005°55'0 0.0
2014-Jul-23 21:03N 54°37' W 005°55'0 0.0
2014-Jul-23 20:30N 54°37' W 005°55'0 0.0
2014-Jul-23 08:18N 54°37' W 005°55'0 0.0
2014-Jul-22 23:08N 54°37' W 005°55'0 0.0
2014-Jul-22 22:23N 54°37' W 005°55'0 0.0
2014-Jul-22 20:29N 54°37' W 005°55'0 0.0
2014-Jul-22 12:26N 54°37' W 005°54'0 0.0
2014-Jul-22 09:29N 54°37' W 005°54'0 0.0
2014-Jul-22 07:11N 54°37' W 005°54'0 0.0
2014-Jul-21 23:23N 54°37' W 005°54'0 0.0
2014-Jul-21 22:14N 54°37' W 005°54'0 0.0
2014-Jul-21 15:29N 54°37' W 005°54'0 0.0
2014-Jul-21 14:29N 54°37' W 005°54'0 0.0
2014-Jul-21 13:32N 54°37' W 005°54'0 0.0
2014-Jul-21 12:26N 54°37' W 005°54'0 0.0
2014-Jul-21 11:32N 54°37' W 005°54'0 0.0
2014-Jul-21 10:29N 54°37' W 005°54'0 0.0
2014-Jul-21 09:29N 54°37' W 005°54'0 0.0
2014-Jul-21 08:26N 54°37' W 005°54'0 0.0
2014-Jul-21 07:29N 54°37' W 005°54'0 0.0
2014-Jul-21 05:32N 54°37' W 005°54'0 0.0
2014-Jul-20 18:31N 54°37' W 005°54'8 8.4
2014-Jul-20 17:33N 54°42' W 005°43'1110.9
2014-Jul-20 16:33N 54°52' W 005°36'1512.3
2014-Jul-20 15:21N 55°05' W 005°49'1113.3
2014-Jul-20 14:33N 55°14' W 005°59'1212.1
2014-Jul-20 13:33N 55°22' W 006°16'1211.8
2014-Jul-20 12:33N 55°31' W 006°28'1110.9
2014-Jul-20 11:33N 55°40' W 006°40'1010.2
2014-Jul-20 10:33N 55°48' W 006°50'  

Dump ship's entire track history